Time;durP1;ratioP1;P1;durP2;ratioP2;P2;SDS_P1;SDS_P2;PMS_P1;PMS_P2;Temp;Humidity;BMP_temperature;BMP_pressure;BME280_temperature;BME280_humidity;BME280_pressure;Samples;Min_cycle;Max_cycle;Signal;HPM_P1;HPM_P2
2023/02/26 00:00:36;;;;;;;;;;;3.20;99.90;;;;;;5031174;28;20025;-75
2023/02/26 00:03:02;;;;;;;14.68;5.95;;;3.30;99.90;;;;;;5030897;28;20420;-75
2023/02/26 00:05:27;;;;;;;;;;;3.30;99.90;;;;;;5048159;28;20051;-75
2023/02/26 00:07:53;;;;;;;15.27;5.63;;;3.40;99.90;;;;;;5048173;28;19909;-75
2023/02/26 00:10:18;;;;;;;;;;;3.30;99.90;;;;;;5049195;28;20508;-75
2023/02/26 00:12:44;;;;;;;32.90;13.23;;;3.30;99.90;;;;;;5048565;28;20305;-74
2023/02/26 00:15:13;;;;;;;;;;;3.30;99.90;;;;;;5048560;28;20024;-75
2023/02/26 00:17:42;;;;;;;22.08;9.75;;;3.30;99.90;;;;;;5030647;28;20427;-75
2023/02/26 00:20:10;;;;;;;10.30;4.55;;;3.20;99.90;;;;;;5030724;28;20033;-74
2023/02/26 00:22:36;;;;;;;4.25;1.40;;;3.10;99.90;;;;;;5046918;28;20472;-74
2023/02/26 00:25:02;;;;;;;7.00;3.05;;;3.10;99.90;;;;;;5046986;28;20124;-75
2023/02/26 00:27:27;;;;;;;;;;;3.10;99.90;;;;;;5048932;28;20109;-74
2023/02/26 00:29:53;;;;;;;5.95;1.63;;;3.00;99.90;;;;;;5030469;28;19904;-74
2023/02/26 00:32:19;;;;;;;;;;;3.00;99.90;;;;;;5030836;28;20204;-74
2023/02/26 00:34:46;;;;;;;3.50;0.88;;;3.00;99.90;;;;;;5048228;28;19905;-74
2023/02/26 00:37:46;;;;;;;2.22;0.90;;;3.00;99.90;;;;;;5030044;28;20053;-75
2023/02/26 00:40:26;;;;;;;2.35;0.70;;;3.00;99.90;;;;;;5048453;28;20094;-74
2023/02/26 00:42:52;;;;;;;5.85;1.33;;;3.00;99.90;;;;;;5030305;28;20607;-74
2023/02/26 00:45:18;;;;;;;;;;;3.00;99.90;;;;;;5047245;28;20021;-74
2023/02/26 00:47:54;;;;;;;3.45;1.00;;;3.00;99.90;;;;;;5029765;28;19915;-75
2023/02/26 00:50:24;;;;;;;14.65;5.63;;;3.00;99.90;;;;;;5048392;28;20112;-74
2023/02/26 00:53:17;;;;;;;23.85;10.27;;;3.00;99.90;;;;;;5046588;28;20033;-74
2023/02/26 00:55:42;;;;;;;14.70;6.00;;;3.00;99.90;;;;;;5047972;28;20033;-74
2023/02/26 00:58:08;;;;;;;;;;;2.90;99.90;;;;;;5048522;28;20398;-75
2023/02/26 01:00:34;;;;;;;5.65;2.03;;;3.00;99.90;;;;;;5047926;28;20385;-75
2023/02/26 01:02:59;;;;;;;;;;;2.90;99.90;;;;;;5048536;28;20506;-75
2023/02/26 01:05:25;;;;;;;4.90;2.33;;;2.90;99.90;;;;;;5048244;28;19913;-74
2023/02/26 01:07:55;;;;;;;;;;;2.90;99.90;;;;;;5047576;28;20029;-74
2023/02/26 01:10:22;;;;;;;7.05;2.92;;;2.90;99.90;;;;;;5047914;28;19909;-72
2023/02/26 01:12:47;;;;;;;4.20;2.20;;;2.90;99.90;;;;;;5046788;28;20749;-74
2023/02/26 01:15:13;;;;;;;;;;;3.00;99.90;;;;;;5047837;28;20029;-74
2023/02/26 01:17:48;;;;;;;4.15;1.65;;;3.00;99.90;;;;;;5047301;28;19945;-74
2023/02/26 01:20:20;;;;;;;6.38;2.38;;;3.00;99.90;;;;;;5030139;28;20564;-74
2023/02/26 01:22:54;;;;;;;4.45;1.30;;;3.00;99.90;;;;;;5047467;28;20024;-74
2023/02/26 01:25:47;;;;;;;2.53;1.05;;;3.20;99.90;;;;;;5030090;28;20032;-75
2023/02/26 01:28:13;;;;;;;2.42;1.08;;;3.20;99.90;;;;;;5047711;28;20028;-73
2023/02/26 01:30:39;;;;;;;4.68;1.80;;;3.30;99.90;;;;;;5046462;28;20083;-75
2023/02/26 01:33:30;;;;;;;4.43;1.85;;;3.30;99.90;;;;;;5047893;28;20037;-73
2023/02/26 01:36:09;;;;;;;2.92;1.10;;;3.30;99.90;;;;;;5030000;28;20056;-74
2023/02/26 01:38:40;;;;;;;3.05;1.40;;;3.30;99.90;;;;;;5029534;28;20639;-75
2023/02/26 01:41:09;;;;;;;5.53;1.52;;;3.30;99.90;;;;;;5010454;28;20093;-74
2023/02/26 01:43:43;;;;;;;3.60;1.25;;;3.30;99.90;;;;;;5029924;28;20030;-75
2023/02/26 01:46:45;;;;;;;2.65;1.20;;;3.30;99.90;;;;;;5013991;28;20021;-74
2023/02/26 01:49:16;;;;;;;3.50;1.13;;;3.20;99.90;;;;;;4990346;28;20095;-74
2023/02/26 01:51:55;;;;;;;2.97;1.30;;;3.20;99.90;;;;;;5013526;28;20044;-74
2023/02/26 01:54:31;;;;;;;3.47;1.15;;;3.20;99.90;;;;;;5031108;28;20070;-74
2023/02/26 01:57:05;;;;;;;2.78;1.05;;;3.20;99.90;;;;;;5031119;28;20037;-74
2023/02/26 01:59:45;;;;;;;6.32;2.55;;;3.10;99.90;;;;;;5013296;28;20033;-75
2023/02/26 02:02:15;;;;;;;4.40;1.98;;;3.10;99.90;;;;;;5010435;28;20446;-76
2023/02/26 02:04:41;;;;;;;4.65;2.17;;;3.10;99.90;;;;;;5012882;28;20068;-74
2023/02/26 02:07:07;;;;;;;4.78;2.17;;;3.10;99.90;;;;;;5031096;28;20090;-74
2023/02/26 02:09:33;;;;;;;6.60;2.38;;;3.10;99.90;;;;;;5013369;28;20028;-74
2023/02/26 02:12:05;;;;;;;;;;;3.10;99.90;;;;;;5031551;28;20029;-73
2023/02/26 02:15:06;;;;;;;4.72;1.98;;;3.10;99.90;;;;;;5012927;28;19909;-74
2023/02/26 02:18:03;;;;;;;2.80;1.15;;;3.10;99.90;;;;;;5030729;28;20116;-74
2023/02/26 02:20:48;;;;;;;2.05;1.00;;;3.00;99.90;;;;;;5030835;28;20087;-75
2023/02/26 02:23:43;;;;;;;4.55;1.73;;;3.00;99.90;;;;;;5030637;28;20147;-74
2023/02/26 02:26:27;;;;;;;2.60;1.13;;;3.00;99.90;;;;;;5013122;28;20056;-74
2023/02/26 02:29:28;;;;;;;4.47;1.08;;;3.00;99.90;;;;;;5012743;28;20022;-74
2023/02/26 02:32:10;;;;;;;2.72;1.10;;;3.00;99.90;;;;;;5012369;28;20083;-74
2023/02/26 02:34:48;;;;;;;3.25;1.25;;;3.00;99.90;;;;;;5030301;28;20034;-75
2023/02/26 02:37:22;;;;;;;7.22;1.42;;;3.00;99.90;;;;;;5012596;28;20052;-75
2023/02/26 02:40:00;;;;;;;5.68;1.77;;;3.00;99.90;;;;;;5013096;28;20054;-74
2023/02/26 02:42:30;;;;;;;3.28;1.65;;;3.00;99.90;;;;;;5030320;28;20037;-75
2023/02/26 02:45:01;;;;;;;3.40;1.70;;;2.90;99.90;;;;;;5030068;28;20045;-74
2023/02/26 02:47:30;;;;;;;3.58;1.70;;;2.90;99.90;;;;;;5030067;28;20040;-73
2023/02/26 02:50:38;;;;;;;2.90;1.10;;;2.90;99.90;;;;;;5030402;28;20025;-74
2023/02/26 02:53:14;;;;;;;3.05;1.17;;;2.90;99.90;;;;;;4974608;28;20029;-74
2023/02/26 02:55:53;;;;;;;3.17;1.48;;;2.80;99.90;;;;;;5012390;28;20049;-74
2023/02/26 02:58:24;;;;;;;2.47;1.48;;;2.80;99.90;;;;;;5012623;28;20040;-75
2023/02/26 03:00:53;;;;;;;2.67;1.10;;;2.80;99.90;;;;;;5011620;28;20033;-73
2023/02/26 03:03:36;;;;;;;3.50;1.27;;;2.80;99.90;;;;;;5011767;28;20029;-76
2023/02/26 03:06:02;;;;;;;3.50;1.75;;;2.80;99.90;;;;;;5012229;28;20454;-74
2023/02/26 03:08:33;;;;;;;3.28;1.60;;;2.80;99.90;;;;;;5029454;28;20025;-74
2023/02/26 03:10:59;;;;;;;4.63;1.88;;;2.80;99.90;;;;;;5029776;28;20059;-75
2023/02/26 03:13:25;;;;;;;;;;;2.80;99.90;;;;;;5030304;28;20029;-76
2023/02/26 03:16:06;;;;;;;3.72;1.75;;;2.80;99.90;;;;;;5012351;28;19905;-74
2023/02/26 03:18:49;;;;;;;4.35;1.50;;;2.70;99.90;;;;;;5011194;28;20044;-74
2023/02/26 03:21:56;;;;;;;4.65;2.00;;;2.70;99.90;;;;;;5011729;28;20072;-75
2023/02/26 03:24:39;;;;;;;6.50;1.95;;;2.70;99.90;;;;;;5028815;28;20119;-75
2023/02/26 03:27:20;;;;;;;3.47;1.63;;;2.60;99.90;;;;;;5011725;28;20449;-74
2023/02/26 03:29:48;;;;;;;6.50;2.55;;;2.60;99.90;;;;;;5029561;28;20509;-75
2023/02/26 03:32:32;;;;;;;4.78;1.70;;;2.60;99.90;;;;;;5029447;28;20013;-74
2023/02/26 03:35:15;;;;;;;3.58;1.83;;;2.60;99.90;;;;;;5011629;28;20098;-75
2023/02/26 03:37:49;;;;;;;3.78;2.03;;;2.60;99.90;;;;;;5038475;28;20529;-74
2023/02/26 03:40:22;;;;;;;6.22;1.85;;;2.50;99.90;;;;;;5031025;28;20044;-75
2023/02/26 03:42:59;;;;;;;3.65;1.85;;;2.50;99.90;;;;;;5031180;28;20060;-75
2023/02/26 03:45:30;;;;;;;3.90;2.22;;;2.50;99.90;;;;;;5049131;28;20111;-74
2023/02/26 03:47:58;;;;;;;6.45;1.70;;;2.50;99.90;;;;;;5047788;28;20025;-75
2023/02/26 03:50:24;;;;;;;3.95;1.92;;;2.50;99.90;;;;;;5031120;28;20083;-75
2023/02/26 03:52:50;;;;;;;;;;;2.50;99.90;;;;;;5031593;28;20466;-74
2023/02/26 03:55:33;;;;;;;4.70;2.22;;;2.50;99.90;;;;;;5030924;28;20373;-74
2023/02/26 03:57:58;;;;;;;4.50;1.83;;;2.50;99.90;;;;;;5041665;28;20032;-73
2023/02/26 04:00:26;;;;;;;;;;;2.50;99.90;;;;;;5030928;28;20029;-74
2023/02/26 04:03:02;;;;;;;3.33;1.27;;;2.50;99.90;;;;;;5048707;28;20397;-73
2023/02/26 04:05:33;;;;;;;4.50;1.65;;;2.60;99.90;;;;;;5048243;28;20032;-75
2023/02/26 04:08:00;;;;;;;3.85;1.45;;;2.60;99.90;;;;;;5030463;28;20021;-75
2023/02/26 04:10:56;;;;;;;2.33;1.13;;;2.60;99.90;;;;;;5048706;28;20040;-73
2023/02/26 04:13:22;;;;;;;3.07;1.27;;;2.60;99.90;;;;;;5030740;28;20083;-74
2023/02/26 04:15:48;;;;;;;;;;;2.70;99.90;;;;;;5031038;28;20031;-75
2023/02/26 04:18:13;;;;;;;3.20;1.25;;;2.70;99.90;;;;;;5048517;28;19966;-73
2023/02/26 04:20:39;;;;;;;;;;;2.70;99.90;;;;;;5047674;28;20047;-74
2023/02/26 04:23:05;;;;;;;9.70;1.83;;;2.70;99.90;;;;;;5030839;28;19911;-75
2023/02/26 04:25:30;;;;;;;;;;;2.60;99.90;;;;;;5030677;28;20037;-75
2023/02/26 04:27:56;;;;;;;7.47;2.58;;;2.70;99.90;;;;;;5048423;28;20284;-74
2023/02/26 04:30:21;;;;;;;;;;;2.70;99.90;;;;;;5048801;28;20580;-75
2023/02/26 04:32:47;;;;;;;6.47;1.90;;;2.70;99.90;;;;;;5048106;28;19999;-75
2023/02/26 04:35:13;;;;;;;;;;;2.70;99.90;;;;;;5047733;28;20075;-75
2023/02/26 04:37:38;;;;;;;5.30;1.52;;;2.80;99.90;;;;;;5048268;28;19962;-74
2023/02/26 04:40:04;;;;;;;;;;;2.80;99.90;;;;;;5047416;28;20127;-74
2023/02/26 04:42:30;;;;;;;3.17;1.40;;;2.80;99.90;;;;;;5047458;28;19908;-74
2023/02/26 04:44:55;;;;;;;;;;;2.80;99.90;;;;;;5048334;28;20041;-75
2023/02/26 04:47:21;;;;;;;6.78;1.70;;;2.80;99.90;;;;;;5030182;28;19974;-75
2023/02/26 04:49:46;;;;;;;;;;;2.80;99.90;;;;;;5048687;28;20032;-74
2023/02/26 04:52:12;;;;;;;4.88;1.55;;;2.80;99.90;;;;;;5048173;28;20012;-75
2023/02/26 04:54:39;;;;;;;;;;;2.80;99.90;;;;;;5048418;28;20079;-74
2023/02/26 04:57:05;;;;;;;4.68;2.05;;;2.70;99.90;;;;;;5048104;28;19916;-74
2023/02/26 04:59:30;;;;;;;;;;;2.70;99.90;;;;;;5030844;28;20033;-74
2023/02/26 05:01:56;;;;;;;7.85;3.58;;;2.70;99.90;;;;;;5048184;28;19905;-75
2023/02/26 05:04:21;;;;;;;;;;;2.70;99.90;;;;;;5047130;28;20064;-75
2023/02/26 05:06:47;;;;;;;5.13;2.53;;;2.70;99.90;;;;;;5029835;28;20296;-74
2023/02/26 05:09:13;;;;;;;;;;;2.70;99.90;;;;;;5047161;28;20029;-75
2023/02/26 05:11:38;;;;;;;7.80;3.50;;;2.70;99.90;;;;;;5048202;28;19911;-74
2023/02/26 05:14:04;;;;;;;;;;;2.70;99.90;;;;;;5048420;28;20021;-75
2023/02/26 05:16:29;;;;;;;16.55;7.53;;;2.70;99.90;;;;;;5046553;28;19911;-73
2023/02/26 05:18:55;;;;;;;;;;;2.70;99.90;;;;;;5051149;28;20147;-75
2023/02/26 05:21:21;;;;;;;15.98;6.78;;;2.70;99.90;;;;;;5050544;28;19915;-74
2023/02/26 05:23:46;;;;;;;;;;;2.70;99.90;;;;;;5050801;28;20497;-74
2023/02/26 05:26:12;;;;;;;11.50;4.38;;;2.70;99.90;;;;;;5033770;28;20003;-75
2023/02/26 05:28:38;;;;;;;;;;;2.70;99.90;;;;;;5050416;28;20032;-74
2023/02/26 05:31:04;;;;;;;13.60;5.00;;;2.70;99.90;;;;;;5051533;28;19911;-74
2023/02/26 05:33:29;;;;;;;;;;;2.70;99.90;;;;;;5051822;28;20391;-73
2023/02/26 05:35:56;;;;;;;14.10;4.88;;;2.70;99.90;;;;;;5033494;28;20571;-74
2023/02/26 05:38:22;;;;;;;10.07;3.28;;;2.70;99.90;;;;;;5051133;28;20057;-75
2023/02/26 05:40:48;;;;;;;;;;;2.80;99.90;;;;;;5033712;28;20375;-74
2023/02/26 05:43:13;;;;;;;5.05;2.60;;;2.80;99.90;;;;;;5051357;28;19904;-74
2023/02/26 05:45:39;;;;;;;;;;;2.80;99.90;;;;;;5051692;28;20032;-75
2023/02/26 05:48:04;;;;;;;8.65;2.90;;;2.80;99.90;;;;;;5051113;28;19909;-75
2023/02/26 05:50:30;;;;;;;;;;;2.80;99.90;;;;;;5033641;28;20032;-73
2023/02/26 05:52:56;;;;;;;3.80;1.80;;;2.80;99.90;;;;;;5051133;28;20403;-74
2023/02/26 05:55:22;;;;;;;;;;;2.90;99.90;;;;;;5033427;28;20548;-75
2023/02/26 05:57:47;;;;;;;4.45;2.10;;;2.80;99.90;;;;;;5050888;28;19909;-74
2023/02/26 06:00:13;;;;;;;;;;;2.70;99.90;;;;;;5051437;28;20016;-74
2023/02/26 06:02:40;;;;;;;6.35;2.80;;;2.80;99.90;;;;;;5032615;28;19909;-73
2023/02/26 06:05:06;;;;;;;5.18;2.78;;;2.80;99.90;;;;;;5050974;28;20072;-74
2023/02/26 06:07:32;;;;;;;7.93;2.85;;;2.70;99.90;;;;;;5049668;28;20099;-74
2023/02/26 06:09:57;;;;;;;;;;;2.70;99.90;;;;;;5049998;28;20057;-74
2023/02/26 06:12:23;;;;;;;6.03;3.13;;;2.70;99.90;;;;;;5033165;28;20280;-74
2023/02/26 06:14:48;;;;;;;;;;;2.80;99.90;;;;;;5049788;28;20437;-74
2023/02/26 06:17:14;;;;;;;11.43;5.30;;;2.80;99.90;;;;;;5050891;28;20252;-73
2023/02/26 06:19:40;;;;;;;;;;;2.80;99.90;;;;;;5051213;28;20490;-75
2023/02/26 06:22:05;;;;;;;19.52;9.00;;;2.90;99.90;;;;;;5050796;28;19915;-75
2023/02/26 06:24:31;;;;;;;;;;;2.90;99.90;;;;;;5050866;28;20043;-74
2023/02/26 06:26:57;;;;;;;22.00;10.68;;;2.90;99.90;;;;;;5050189;28;19928;-74
2023/02/26 06:29:22;;;;;;;26.17;12.85;;;2.90;99.90;;;;;;5049015;28;20040;-74
2023/02/26 06:31:48;;;;;;;;;;;3.00;99.90;;;;;;5032732;28;20881;-74
2023/02/26 06:34:14;;;;;;;12.10;5.97;;;3.00;99.90;;;;;;5050314;28;19916;-74
2023/02/26 06:36:40;;;;;;;;;;;3.00;99.90;;;;;;5050792;28;20411;-75
2023/02/26 06:39:06;;;;;;;89.53;52.45;;;3.00;99.90;;;;;;5050141;28;20389;-75
2023/02/26 06:41:33;;;;;;;59.20;34.25;;;3.00;99.90;;;;;;5050092;28;20025;-75
2023/02/26 06:43:58;;;;;;;28.42;15.45;;;3.00;99.90;;;;;;5032319;28;20041;-73
2023/02/26 06:46:24;;;;;;;;;;;3.00;99.90;;;;;;5050644;28;20025;-75
2023/02/26 06:48:49;;;;;;;14.77;6.50;;;3.10;99.90;;;;;;5032058;28;19946;-74
2023/02/26 06:51:15;;;;;;;;;;;3.10;99.90;;;;;;5050807;28;20036;-74
2023/02/26 06:53:41;;;;;;;40.65;18.90;;;3.10;99.90;;;;;;5050016;28;19940;-74
2023/02/26 06:56:06;;;;;;;;;;;3.10;99.90;;;;;;5050579;28;20033;-74
2023/02/26 06:58:32;;;;;;;14.38;6.60;;;3.10;99.90;;;;;;5049648;28;19912;-75
2023/02/26 07:00:57;;;;;;;;;;;3.10;99.90;;;;;;5032516;28;20021;-74
2023/02/26 07:03:23;;;;;;;14.82;7.47;;;3.10;99.90;;;;;;5031894;28;20288;-74
2023/02/26 07:05:49;;;;;;;;;;;3.00;99.90;;;;;;5050264;28;20398;-74
2023/02/26 07:08:15;;;;;;;12.45;8.43;;;3.10;99.90;;;;;;5031702;28;19905;-74
2023/02/26 07:10:41;;;;;;;;;;;3.10;99.90;;;;;;5048786;28;20025;-74
2023/02/26 07:13:06;;;;;;;28.77;16.55;;;3.10;99.90;;;;;;5049559;28;19915;-74
2023/02/26 07:15:32;;;;;;;;;;;3.10;99.90;;;;;;5050070;28;20044;-74
2023/02/26 07:17:58;;;;;;;8.50;4.22;;;3.20;99.90;;;;;;5031507;28;19905;-74
2023/02/26 07:20:25;;;;;;;13.35;7.60;;;3.20;99.90;;;;;;5031500;28;20052;-76
2023/02/26 07:22:51;;;;;;;13.15;4.80;;;3.20;99.90;;;;;;5031214;28;20170;-74
2023/02/26 07:25:16;;;;;;;;;;;3.20;99.90;;;;;;5049773;28;20112;-74
2023/02/26 07:27:42;;;;;;;11.82;4.88;;;3.20;99.90;;;;;;5049138;28;20378;-75
2023/02/26 07:30:08;;;;;;;;;;;3.20;99.90;;;;;;5048371;28;20025;-75
2023/02/26 07:32:34;;;;;;;9.50;6.03;;;3.30;99.90;;;;;;5049211;28;20392;-75
2023/02/26 07:34:59;;;;;;;;;;;3.30;99.90;;;;;;5049385;28;20025;-74
2023/02/26 07:37:25;;;;;;;7.65;3.53;;;3.30;99.90;;;;;;5049300;28;19913;-74
2023/02/26 07:39:50;;;;;;;;;;;3.40;99.90;;;;;;5031419;28;20020;-75
2023/02/26 07:42:17;;;;;;;9.18;3.50;;;3.40;99.90;;;;;;5048574;28;20748;-75
2023/02/26 07:44:43;;;;;;;9.00;4.55;;;3.40;99.90;;;;;;5048684;28;20047;-75
2023/02/26 07:47:09;;;;;;;5.97;2.83;;;3.50;99.90;;;;;;5048979;28;20029;-75
2023/02/26 07:49:35;;;;;;;8.77;4.10;;;3.80;99.90;;;;;;5049132;28;20040;-74
2023/02/26 07:52:01;;;;;;;8.18;4.28;;;3.90;99.90;;;;;;5047734;28;20028;-75
2023/02/26 07:54:27;;;;;;;;;;;4.00;99.90;;;;;;5049339;28;20055;-75
2023/02/26 07:56:53;;;;;;;7.60;3.38;;;4.10;99.90;;;;;;5048917;28;19956;-74
2023/02/26 07:59:19;;;;;;;;;;;4.20;99.90;;;;;;5049114;28;20108;-74
2023/02/26 08:01:44;;;;;;;13.57;5.72;;;4.20;99.90;;;;;;5048884;28;19955;-75
2023/02/26 08:04:10;;;;;;;8.68;3.83;;;4.20;99.90;;;;;;5047407;28;20033;-74
2023/02/26 08:06:35;;;;;;;;;;;4.20;99.90;;;;;;5047783;28;20472;-74
2023/02/26 08:09:02;;;;;;;17.92;6.15;;;4.20;99.90;;;;;;5031040;28;20515;-74
2023/02/26 08:11:27;;;;;;;16.50;7.45;;;4.40;99.90;;;;;;5047665;28;20037;-74
2023/02/26 08:13:53;;;;;;;;;;;4.50;99.90;;;;;;5049098;28;20187;-75
2023/02/26 08:16:19;;;;;;;11.65;4.45;;;4.40;99.90;;;;;;5047060;28;19905;-74
2023/02/26 08:18:45;;;;;;;9.32;4.68;;;4.40;99.90;;;;;;5048331;28;20394;-74
2023/02/26 08:21:10;;;;;;;;;;;4.30;99.90;;;;;;5030940;28;20028;-74
2023/02/26 08:23:36;;;;;;;4.97;2.85;;;4.30;99.90;;;;;;5030838;28;19913;-74
2023/02/26 08:26:04;;;;;;;7.18;3.60;;;4.30;99.90;;;;;;5048437;28;20021;-74
2023/02/26 08:28:31;;;;;;;6.30;3.42;;;4.30;99.90;;;;;;5048406;28;20024;-75
2023/02/26 08:30:57;;;;;;;4.13;2.17;;;4.30;99.90;;;;;;5048557;28;20024;-76
2023/02/26 08:33:24;;;;;;;4.75;2.70;;;4.30;99.90;;;;;;5030892;28;20029;-74
2023/02/26 08:35:50;;;;;;;5.75;2.30;;;4.40;99.90;;;;;;5048401;28;20017;-75
2023/02/26 08:38:16;;;;;;;11.57;6.10;;;4.30;99.90;;;;;;5048236;28;20045;-75
2023/02/26 08:40:42;;;;;;;;;;;4.20;99.90;;;;;;5048731;28;20036;-76
2023/02/26 08:43:08;;;;;;;5.07;2.25;;;4.30;99.90;;;;;;5047922;28;19908;-74
2023/02/26 08:45:34;;;;;;;;;;;4.30;99.90;;;;;;5048741;28;20493;-74
2023/02/26 08:47:59;;;;;;;3.63;2.20;;;4.30;99.90;;;;;;5048264;28;19916;-74
2023/02/26 08:50:25;;;;;;;;;;;4.20;99.90;;;;;;5048733;28;20025;-76
2023/02/26 08:52:51;;;;;;;8.27;2.10;;;4.20;99.90;;;;;;5050743;28;19908;-75
2023/02/26 08:55:17;;;;;;;3.75;1.67;;;4.20;99.90;;;;;;5052297;28;20032;-75
2023/02/26 08:57:42;;;;;;;;;;;4.40;99.90;;;;;;5034362;28;20409;-75
2023/02/26 09:00:11;;;;;;;4.22;2.03;;;4.30;99.90;;;;;;5052111;28;20385;-75
2023/02/26 09:02:38;;;;;;;4.10;1.50;;;4.30;99.90;;;;;;5052009;28;20029;-73
2023/02/26 09:05:04;;;;;;;2.83;1.27;;;4.30;99.90;;;;;;5034090;28;20048;-75
2023/02/26 09:07:30;;;;;;;3.10;1.48;;;4.30;99.90;;;;;;5051616;28;20456;-74
2023/02/26 09:09:56;;;;;;;;;;;4.30;99.90;;;;;;5052556;28;20033;-75
2023/02/26 09:12:21;;;;;;;7.63;4.07;;;4.30;99.90;;;;;;5051672;28;19909;-74
2023/02/26 09:14:47;;;;;;;;;;;4.30;99.90;;;;;;5052072;28;20328;-75
2023/02/26 09:17:13;;;;;;;9.15;2.38;;;4.30;99.90;;;;;;5033705;28;19956;-74
2023/02/26 09:19:38;;;;;;;7.00;3.65;;;4.20;99.90;;;;;;5051843;28;20055;-75
2023/02/26 09:22:04;;;;;;;;;;;4.30;99.90;;;;;;5034022;28;20569;-74
2023/02/26 09:24:29;;;;;;;10.27;3.88;;;4.40;99.90;;;;;;5033641;28;19916;-75
2023/02/26 09:26:55;;;;;;;;;;;4.40;99.90;;;;;;5033814;28;20029;-74
2023/02/26 09:29:21;;;;;;;3.92;1.98;;;4.50;99.90;;;;;;5051413;28;19951;-75
2023/02/26 09:31:46;;;;;;;;;;;4.60;99.90;;;;;;5051694;28;20065;-75
2023/02/26 09:34:12;;;;;;;9.57;4.30;;;4.60;99.90;;;;;;5050134;28;20007;-73
2023/02/26 09:36:38;;;;;;;;;;;4.60;99.90;;;;;;5051639;28;20032;-74
2023/02/26 09:39:05;;;;;;;5.47;2.92;;;4.70;99.90;;;;;;5051412;28;19969;-75
2023/02/26 09:41:46;;;;;;;8.77;4.53;;;4.80;99.90;;;;;;5051092;28;20037;-74
2023/02/26 09:44:23;;;;;;;48.13;21.13;;;5.00;99.90;;;;;;5051278;28;20037;-74
2023/02/26 09:47:00;;;;;;;23.65;12.48;;;5.10;99.90;;;;;;5051205;28;20102;-75
2023/02/26 09:49:29;;;;;;;6.75;3.25;;;5.20;99.90;;;;;;5051472;28;20102;-75
2023/02/26 09:52:02;;;;;;;5.32;1.90;;;5.40;99.90;;;;;;5033310;28;20025;-75
2023/02/26 09:54:34;;;;;;;14.00;7.70;;;5.50;99.90;;;;;;5049840;28;20029;-74
2023/02/26 09:57:00;;;;;;;8.90;5.03;;;5.70;99.90;;;;;;5051114;28;20032;-74
2023/02/26 09:59:31;;;;;;;;;;;5.70;99.90;;;;;;5033419;28;20033;-74
2023/02/26 10:02:39;;;;;;;10.38;5.75;;;5.80;99.90;;;;;;5050967;28;19912;-75
2023/02/26 10:05:43;;;;;;;11.63;5.35;;;5.90;99.90;;;;;;5050107;28;20139;-75
2023/02/26 10:08:16;;;;;;;7.63;3.45;;;6.10;99.90;;;;;;4969458;28;20031;-74
2023/02/26 10:10:52;;;;;;;16.67;7.55;;;6.30;99.90;;;;;;4969540;28;20825;-74
2023/02/26 10:13:43;;;;;;;14.85;6.47;;;6.30;99.90;;;;;;5016653;28;20079;-74
2023/02/26 10:16:17;;;;;;;6.25;3.03;;;6.30;99.90;;;;;;5050653;28;20036;-75
2023/02/26 10:18:48;;;;;;;2.80;1.48;;;6.40;99.90;;;;;;5049104;28;20067;-74
2023/02/26 10:21:17;;;;;;;11.32;5.15;;;6.60;99.90;;;;;;5050651;28;20018;-74
2023/02/26 10:23:49;;;;;;;13.40;7.57;;;6.70;99.90;;;;;;5050320;28;20044;-75
2023/02/26 10:26:35;;;;;;;22.25;9.93;;;6.90;97.80;;;;;;5050530;28;20033;-75
2023/02/26 10:29:35;;;;;;;5.07;1.70;;;6.90;96.60;;;;;;5032472;28;20040;-75
2023/02/26 10:32:14;;;;;;;14.38;8.15;;;6.80;97.70;;;;;;5050463;28;20033;-74
2023/02/26 10:34:56;;;;;;;9.15;4.38;;;7.10;92.60;;;;;;5050320;28;20043;-74
2023/02/26 10:37:33;;;;;;;7.35;3.35;;;6.90;92.90;;;;;;5050172;28;20048;-75
2023/02/26 10:40:11;;;;;;;10.80;4.68;;;7.00;93.30;;;;;;5050278;28;20036;-74
2023/02/26 10:42:51;;;;;;;6.25;2.60;;;7.00;95.30;;;;;;5050062;28;20033;-75
2023/02/26 10:45:35;;;;;;;11.95;4.70;;;7.00;95.00;;;;;;5050182;28;20037;-75
2023/02/26 10:48:20;;;;;;;4.85;2.25;;;7.10;94.50;;;;;;5050178;28;20059;-75
2023/02/26 10:50:54;;;;;;;10.23;4.38;;;7.00;94.80;;;;;;5049808;28;20060;-75
2023/02/26 10:53:21;;;;;;;20.25;8.63;;;7.10;94.30;;;;;;5049968;28;20032;-74
2023/02/26 10:56:01;;;;;;;6.18;3.03;;;7.30;94.30;;;;;;5031975;28;20154;-75
2023/02/26 10:58:27;;;;;;;8.05;3.60;;;7.30;93.50;;;;;;5049961;28;20490;-75
2023/02/26 11:00:54;;;;;;;;;;;7.30;92.60;;;;;;5049047;28;20032;-74
2023/02/26 11:03:25;;;;;;;10.90;5.03;;;7.30;92.60;;;;;;5049830;28;20185;-74
2023/02/26 11:05:51;;;;;;;20.10;7.43;;;7.30;92.60;;;;;;5049660;28;20510;-74
2023/02/26 11:08:29;;;;;;;;;;;7.40;89.80;;;;;;5032064;28;20029;-75
2023/02/26 11:10:58;;;;;;;12.27;4.22;;;7.20;93.00;;;;;;5049552;28;19909;-75
2023/02/26 11:13:26;;;;;;;9.40;3.85;;;7.00;95.80;;;;;;5048208;28;20060;-74
2023/02/26 11:15:54;;;;;;;51.20;23.13;;;7.10;95.60;;;;;;5048396;28;20654;-75
2023/02/26 11:18:31;;;;;;;22.38;8.25;;;7.10;95.80;;;;;;5049053;28;20040;-75
2023/02/26 11:20:59;;;;;;;67.10;26.73;;;7.20;93.80;;;;;;5049140;28;20056;-75
2023/02/26 11:23:29;;;;;;;9.88;4.07;;;7.20;92.90;;;;;;5049339;28;20029;-74
2023/02/26 11:26:16;;;;;;;36.50;14.77;;;7.10;93.80;;;;;;5031459;28;20520;-75
2023/02/26 11:28:45;;;;;;;36.20;14.73;;;7.30;92.30;;;;;;5031244;28;20020;-75
2023/02/26 11:31:14;;;;;;;14.05;5.82;;;7.50;89.80;;;;;;5031271;28;20068;-75
2023/02/26 11:33:50;;;;;;;82.68;31.88;;;7.30;91.50;;;;;;5031301;28;20494;-75
2023/02/26 11:36:22;;;;;;;77.10;28.05;;;7.40;89.60;;;;;;5031307;28;20044;-74
2023/02/26 11:38:55;;;;;;;28.83;9.93;;;7.50;90.30;;;;;;5049083;28;20395;-74
2023/02/26 11:41:22;;;;;;;12.43;6.38;;;7.50;88.70;;;;;;5047825;28;20474;-74
2023/02/26 11:44:01;;;;;;;17.92;8.55;;;7.50;85.80;;;;;;5049013;28;20063;-74
2023/02/26 11:46:27;;;;;;;10.90;5.60;;;7.40;90.60;;;;;;5049052;28;20044;-74
2023/02/26 11:48:54;;;;;;;;;;;7.30;91.50;;;;;;5049340;28;20091;-74
2023/02/26 11:51:27;;;;;;;27.20;12.48;;;7.30;89.80;;;;;;5048697;28;19908;-74
2023/02/26 11:53:59;;;;;;;17.27;8.82;;;7.10;89.90;;;;;;5048825;28;20108;-74
2023/02/26 11:56:29;;;;;;;12.07;6.38;;;7.00;91.60;;;;;;5030913;28;20037;-75
2023/02/26 11:58:56;;;;;;;16.75;7.53;;;7.00;90.20;;;;;;5048714;28;20032;-74
2023/02/26 12:01:28;;;;;;;13.60;6.45;;;7.00;89.40;;;;;;5047504;28;20434;-75
2023/02/26 12:03:58;;;;;;;7.47;3.65;;;6.90;86.40;;;;;;5048541;28;20554;-74
2023/02/26 12:06:24;;;;;;;9.90;4.57;;;7.00;84.30;;;;;;5030698;28;20029;-74
2023/02/26 12:08:51;;;;;;;;;;;6.90;84.70;;;;;;5048424;28;20050;-73
2023/02/26 12:11:45;;;;;;;18.95;8.90;;;6.80;84.30;;;;;;5030914;28;19909;-74
2023/02/26 12:14:39;;;;;;;20.45;8.10;;;6.80;85.50;;;;;;5048594;28;20025;-73
2023/02/26 12:17:14;;;;;;;5.78;2.90;;;6.90;84.80;;;;;;5045981;28;20056;-74
2023/02/26 12:20:14;;;;;;;7.15;3.45;;;6.90;79.50;;;;;;5048612;28;20119;-74
2023/02/26 12:22:57;;;;;;;8.27;4.10;;;7.10;81.90;;;;;;5030513;28;20021;-74
2023/02/26 12:25:51;;;;;;;12.07;5.20;;;7.20;77.00;;;;;;5048375;28;20091;-74
2023/02/26 12:28:42;;;;;;;6.75;3.42;;;7.20;79.10;;;;;;5030104;28;20064;-74
2023/02/26 12:31:35;;;;;;;9.68;3.42;;;7.20;73.50;;;;;;5030490;28;20053;-75
2023/02/26 12:34:28;;;;;;;6.40;2.75;;;7.10;75.40;;;;;;5048311;28;20028;-74
2023/02/26 12:36:54;;;;;;;8.57;4.10;;;7.10;73.50;;;;;;5048087;28;20033;-73
2023/02/26 12:39:36;;;;;;;;;;;7.10;74.30;;;;;;5030928;28;20044;-74
2023/02/26 12:42:22;;;;;;;9.40;3.67;;;7.10;74.30;;;;;;5047873;28;19908;-74
2023/02/26 12:45:32;;;;;;;10.15;3.83;;;7.10;73.90;;;;;;5006742;28;20068;-74
2023/02/26 12:48:48;;;;;;;7.13;3.47;;;7.00;75.40;;;;;;5029044;28;20087;-74
2023/02/26 12:51:21;;;;;;;5.85;2.80;;;7.10;75.80;;;;;;5030127;28;20110;-75
2023/02/26 12:54:25;;;;;;;4.43;1.92;;;7.10;75.60;;;;;;5048217;28;20684;-75
2023/02/26 12:57:16;;;;;;;8.35;3.50;;;7.20;72.70;;;;;;5047484;28;20064;-74
2023/02/26 13:00:14;;;;;;;11.98;5.80;;;7.10;73.00;;;;;;5023084;28;20045;-74
2023/02/26 13:02:43;;;;;;;5.57;2.78;;;7.20;78.40;;;;;;5017112;28;20409;-74
2023/02/26 13:05:41;;;;;;;3.85;1.58;;;7.40;73.10;;;;;;5047777;28;20138;-74
2023/02/26 13:08:42;;;;;;;5.72;2.70;;;7.30;71.10;;;;;;5041589;28;20048;-75
2023/02/26 13:11:28;;;;;;;3.67;1.85;;;7.20;73.80;;;;;;5023899;28;20029;-74
2023/02/26 13:14:06;;;;;;;18.10;7.40;;;7.10;74.50;;;;;;5030208;28;20025;-74
2023/02/26 13:16:41;;;;;;;12.80;6.40;;;7.00;77.10;;;;;;5029864;28;20025;-75
2023/02/26 13:19:47;;;;;;;8.15;3.95;;;7.00;79.10;;;;;;5029990;28;20437;-74
2023/02/26 13:22:18;;;;;;;6.68;3.55;;;7.00;76.90;;;;;;4990799;28;20045;-74
2023/02/26 13:25:05;;;;;;;6.82;3.35;;;7.00;78.40;;;;;;5029951;28;20033;-74
2023/02/26 13:27:37;;;;;;;10.00;5.20;;;6.90;80.00;;;;;;5029714;28;20410;-74
2023/02/26 13:30:18;;;;;;;10.82;4.63;;;6.90;82.10;;;;;;5047748;28;20513;-74
2023/02/26 13:32:47;;;;;;;6.03;3.10;;;6.70;82.40;;;;;;5047648;28;20021;-75
2023/02/26 13:35:36;;;;;;;9.63;4.20;;;6.90;80.50;;;;;;5029840;28;20099;-74
2023/02/26 13:38:13;;;;;;;11.73;5.10;;;6.90;80.90;;;;;;5029610;28;20509;-74